Time;durP1;ratioP1;P1;durP2;ratioP2;P2;SDS_P1;SDS_P2;PMS_P1;PMS_P2;Temp;Humidity;BMP_temperature;BMP_pressure;BME280_temperature;BME280_humidity;BME280_pressure;Samples;Min_cycle;Max_cycle;Signal;HPM_P1;HPM_P2
2023/12/22 00:01:27;;;;;;;;;;;1.90;87.30;;;;;;5003819;28;88093;-53
2023/12/22 00:03:53;;;;;;;;;;;1.90;87.30;;;;;;5002776;28;87712;-55
2023/12/22 00:06:18;;;;;;;;;;;1.90;87.40;;;;;;5004385;28;88304;-52
2023/12/22 00:08:44;;;;;;;;;;;1.90;87.40;;;;;;4998924;28;86957;-54
2023/12/22 00:11:09;;;;;;;;;;;1.90;87.50;;;;;;5006328;28;86933;-50
2023/12/22 00:13:35;;;;;;;;;;;1.90;87.50;;;;;;5004801;28;87116;-54
2023/12/22 00:16:00;;;;;;;;;;;1.90;87.50;;;;;;4999968;28;86978;-52
2023/12/22 00:18:26;;;;;;;;;;;1.90;87.40;;;;;;4997815;28;86487;-52
2023/12/22 00:20:52;;;;;;;;;;;1.90;87.40;;;;;;5000517;28;86962;-54
2023/12/22 00:23:17;;;;;;;;;;;1.90;87.40;;;;;;5001556;28;86969;-52
2023/12/22 00:25:43;;;;;;;;;;;1.90;87.40;;;;;;4997879;28;88439;-53
2023/12/22 00:28:09;;;;;;;;;;;1.80;87.50;;;;;;5000137;28;87043;-51
2023/12/22 00:30:34;;;;;;;;;;;1.80;87.40;;;;;;5003825;28;87026;-51
2023/12/22 00:33:00;;;;;;;;;;;1.90;87.40;;;;;;5003512;28;87410;-52
2023/12/22 00:35:25;;;;;;;;;;;1.90;87.50;;;;;;4997621;28;86911;-52
2023/12/22 00:37:51;;;;;;;;;;;1.80;87.40;;;;;;5000676;28;88795;-54
2023/12/22 00:40:16;;;;;;;;;;;1.90;87.50;;;;;;4998080;28;87077;-54
2023/12/22 00:42:42;;;;;;;;;;;1.90;87.50;;;;;;5001187;28;86358;-52
2023/12/22 00:45:07;;;;;;;;;;;1.90;87.50;;;;;;4996618;28;87377;-51
2023/12/22 00:47:36;;;;;;;;;;;1.90;87.50;;;;;;5003578;28;87243;-53
2023/12/22 00:50:02;;;;;;;;;;;1.80;87.40;;;;;;5003932;28;87966;-52
2023/12/22 00:52:28;;;;;;;;;;;1.90;87.50;;;;;;5004562;28;88480;-55
2023/12/22 00:54:53;;;;;;;;;;;1.80;87.50;;;;;;5000733;28;86972;-50
2023/12/22 00:57:19;;;;;;;;;;;1.80;87.60;;;;;;4990962;28;88648;-51
2023/12/22 00:59:47;;;;;;;;;;;1.80;87.60;;;;;;4997072;28;87038;-52
2023/12/22 01:02:13;;;;;;;;;;;1.80;87.70;;;;;;5001358;28;87773;-53
2023/12/22 01:04:39;;;;;;;;;;;1.80;87.60;;;;;;5000315;28;88559;-55
2023/12/22 01:07:06;;;;;;;;;;;1.80;87.50;;;;;;5000693;28;86298;-52
2023/12/22 01:09:32;;;;;;;;;;;1.80;87.60;;;;;;5000543;28;87625;-53
2023/12/22 01:11:59;;;;;;;;;;;1.80;87.60;;;;;;4997513;28;87345;-52
2023/12/22 01:14:24;;;;;;;;;;;1.80;87.80;;;;;;4999175;28;87963;-54
2023/12/22 01:16:50;;;;;;;;;;;1.80;87.70;;;;;;5002971;28;88859;-52
2023/12/22 01:19:15;;;;;;;;;;;1.80;87.80;;;;;;5006201;28;87141;-54
2023/12/22 01:21:41;;;;;;;;;;;1.80;87.70;;;;;;4998270;28;86951;-52
2023/12/22 01:24:07;;;;;;;;;;;1.80;87.70;;;;;;5000166;28;88607;-52
2023/12/22 01:26:32;;;;;;;;;;;1.80;87.70;;;;;;4996709;28;87034;-51
2023/12/22 01:28:58;;;;;;;;;;;1.80;87.80;;;;;;4996646;28;86966;-50
2023/12/22 01:31:24;;;;;;;;;;;1.80;87.80;;;;;;4997900;28;87691;-55
2023/12/22 01:33:49;;;;;;;;;;;1.80;87.90;;;;;;4999844;28;86776;-53
2023/12/22 01:36:15;;;;;;;;;;;1.80;87.80;;;;;;4996735;28;87821;-52
2023/12/22 01:38:40;;;;;;;;;;;1.80;87.80;;;;;;5001352;28;88561;-52
2023/12/22 01:41:06;;;;;;;;;;;1.80;87.80;;;;;;4999920;28;88013;-55
2023/12/22 01:43:31;;;;;;;;;;;1.80;87.70;;;;;;4999679;28;87400;-50
2023/12/22 01:45:58;;;;;;;;;;;1.80;87.80;;;;;;5002790;28;87033;-52
2023/12/22 01:48:24;;;;;;;;;;;1.80;87.80;;;;;;5003221;28;88039;-53
2023/12/22 01:50:51;;;;;;;;;;;1.80;87.80;;;;;;4999840;28;87466;-55
2023/12/22 01:53:17;;;;;;;;;;;1.80;88.00;;;;;;4999760;28;86988;-53
2023/12/22 01:55:42;;;;;;;;;;;1.80;88.00;;;;;;4996919;28;86750;-54
2023/12/22 01:58:08;;;;;;;;;;;1.80;88.00;;;;;;4997739;28;87292;-54
2023/12/22 02:00:34;;;;;;;;;;;1.80;87.90;;;;;;5003181;28;86954;-53
2023/12/22 02:02:59;;;;;;;;;;;1.80;87.90;;;;;;5003576;28;88447;-51
2023/12/22 02:05:25;;;;;;;;;;;1.80;88.00;;;;;;4999323;28;86851;-53
2023/12/22 02:07:50;;;;;;;;;;;1.80;88.00;;;;;;4999449;28;87765;-54
2023/12/22 02:10:16;;;;;;;;;;;1.80;88.00;;;;;;4996217;28;88491;-50
2023/12/22 02:12:42;;;;;;;;;;;1.80;88.10;;;;;;4998983;28;86969;-54
2023/12/22 02:15:08;;;;;;;;;;;1.80;88.00;;;;;;4999193;28;86973;-51
2023/12/22 02:17:45;;;;;;;;;;;1.70;88.00;;;;;;4997498;28;88395;-53
2023/12/22 02:20:11;;;;;;;;;;;1.80;88.10;;;;;;5002587;28;86209;-51
2023/12/22 02:22:36;;;;;;;;;;;1.80;88.10;;;;;;4995126;28;87491;-52
2023/12/22 02:25:02;;;;;;;;;;;1.80;88.10;;;;;;4999559;28;86920;-51
2023/12/22 02:27:33;;;;;;;;;;;1.80;88.10;;;;;;4995312;28;88059;-51
2023/12/22 02:30:21;;;;;;;;;;;1.80;88.10;;;;;;4997691;28;88613;-51
2023/12/22 02:32:49;;;;;;;;;;;1.80;88.10;;;;;;4998005;28;87725;-53
2023/12/22 02:35:16;;;;;;;;;;;1.80;88.20;;;;;;4996918;28;86869;-54
2023/12/22 02:37:42;;;;;;;;;;;1.70;88.20;;;;;;4996960;28;88655;-53
2023/12/22 02:40:09;;;;;;;;;;;1.70;88.20;;;;;;4997875;28;87029;-54
2023/12/22 02:42:36;;;;;;;;;;;1.70;88.20;;;;;;4999144;28;87986;-53
2023/12/22 02:45:01;;;;;;;;;;;1.70;88.10;;;;;;4995812;28;86449;-50
2023/12/22 02:47:32;;;;;;;;;;;1.70;88.20;;;;;;4999501;28;86886;-50
2023/12/22 02:49:57;;;;;;;;;;;1.80;88.20;;;;;;4997393;28;88558;-53
2023/12/22 02:52:23;;;;;;;;;;;1.70;88.20;;;;;;4995517;28;87928;-54
2023/12/22 02:54:49;;;;;;;;;;;1.70;88.10;;;;;;4999369;28;87547;-53
2023/12/22 02:57:14;;;;;;;;;;;1.70;88.10;;;;;;4995915;28;87824;-50
2023/12/22 02:59:40;;;;;;;;;;;1.70;88.10;;;;;;4993229;28;86954;-50
2023/12/22 03:02:05;;;;;;;;;;;1.70;88.20;;;;;;4999098;28;87345;-52
2023/12/22 03:04:31;;;;;;;;;;;1.70;88.30;;;;;;5000932;28;87348;-50
2023/12/22 03:06:56;;;;;;;;;;;1.80;88.30;;;;;;4994862;28;87278;-53
2023/12/22 03:09:22;;;;;;;;;;;1.70;88.20;;;;;;4997647;28;86714;-50
2023/12/22 03:11:48;;;;;;;;;;;1.70;88.20;;;;;;5004006;28;86981;-50
2023/12/22 03:14:13;;;;;;;;;;;1.80;88.20;;;;;;4995178;28;87013;-50
2023/12/22 03:16:39;;;;;;;;;;;1.70;88.20;;;;;;4992403;28;87899;-54
2023/12/22 03:19:06;;;;;;;;;;;1.70;88.30;;;;;;4997529;28;87049;-51
2023/12/22 03:21:31;;;;;;;;;;;1.80;88.30;;;;;;4994823;28;86876;-51
2023/12/22 03:23:57;;;;;;;;;;;1.70;88.80;;;;;;4994464;28;87503;-54
2023/12/22 03:26:22;;;;;;;;;;;1.70;88.30;;;;;;4999556;28;87098;-53
2023/12/22 03:28:48;;;;;;;;;;;1.70;88.30;;;;;;4994623;28;87355;-53
2023/12/22 03:31:14;;;;;;;;;;;1.80;88.30;;;;;;4996191;28;87043;-52
2023/12/22 03:33:39;;;;;;;;;;;1.80;88.30;;;;;;4996395;28;87751;-54
2023/12/22 03:36:05;;;;;;;;;;;1.70;88.30;;;;;;4995798;28;87415;-52
2023/12/22 03:38:30;;;;;;;;;;;1.70;88.50;;;;;;4996650;28;87016;-52
2023/12/22 03:40:56;;;;;;;;;;;1.70;88.50;;;;;;4996601;28;87924;-52
2023/12/22 03:43:21;;;;;;;;;;;1.70;88.30;;;;;;4998030;28;87377;-53
2023/12/22 03:45:47;;;;;;;;;;;1.70;88.50;;;;;;4998920;28;87083;-51
2023/12/22 03:48:13;;;;;;;;;;;1.70;88.30;;;;;;4997041;28;86941;-53
2023/12/22 03:50:38;;;;;;;;;;;1.80;88.30;;;;;;4998460;28;88531;-53
2023/12/22 03:53:04;;;;;;;;;;;1.70;88.30;;;;;;4996984;28;87129;-53
2023/12/22 03:55:29;;;;;;;;;;;1.70;88.40;;;;;;5000902;28;88191;-50
2023/12/22 03:57:55;;;;;;;;;;;1.70;88.30;;;;;;4999149;28;86287;-49
2023/12/22 04:00:20;;;;;;;;;;;1.80;88.30;;;;;;4998292;28;87089;-49
2023/12/22 04:02:46;;;;;;;;;;;1.70;88.30;;;;;;4994844;28;87709;-51
2023/12/22 04:05:11;;;;;;;;;;;1.80;88.40;;;;;;4996627;28;88004;-54
2023/12/22 04:07:37;;;;;;;;;;;1.80;88.30;;;;;;5005624;28;90450;-52
2023/12/22 04:10:03;;;;;;;;;;;1.70;88.30;;;;;;4997980;28;87005;-52
2023/12/22 04:12:28;;;;;;;;;;;1.70;88.20;;;;;;4996189;28;86965;-52
2023/12/22 04:14:54;;;;;;;;;;;1.70;88.50;;;;;;4997005;28;88097;-52
2023/12/22 04:17:19;;;;;;;;;;;1.70;88.40;;;;;;4995861;28;87024;-53
2023/12/22 04:19:45;;;;;;;;;;;1.70;88.60;;;;;;4997358;28;87023;-53
2023/12/22 04:22:10;;;;;;;;;;;1.80;88.50;;;;;;4995802;28;86773;-51
2023/12/22 04:24:36;;;;;;;;;;;1.70;88.40;;;;;;4993055;28;87979;-51
2023/12/22 04:27:02;;;;;;;;;;;1.70;88.60;;;;;;4993720;28;87962;-53
2023/12/22 04:29:27;;;;;;;;;;;1.70;89.10;;;;;;4995798;28;88414;-51
2023/12/22 04:31:53;;;;;;;;;;;1.70;88.80;;;;;;4994519;28;87791;-54
2023/12/22 04:34:18;;;;;;;;;;;1.70;88.90;;;;;;4996593;28;88338;-51
2023/12/22 04:36:44;;;;;;;;;;;1.70;88.70;;;;;;4994520;28;86994;-51
2023/12/22 04:39:09;;;;;;;;;;;1.80;88.70;;;;;;4996596;28;87007;-51
2023/12/22 04:41:35;;;;;;;;;;;1.70;88.70;;;;;;4995032;28;87639;-54
2023/12/22 04:44:03;;;;;;;;;;;1.70;88.60;;;;;;4999189;28;87103;-53
2023/12/22 04:46:29;;;;;;;;;;;1.70;88.80;;;;;;5001945;28;86600;-52
2023/12/22 04:48:55;;;;;;;;;;;1.70;88.70;;;;;;5001073;28;88415;-51
2023/12/22 04:51:21;;;;;;;;;;;1.70;88.70;;;;;;5001312;28;87146;-54
2023/12/22 04:53:46;;;;;;;;;;;1.70;88.70;;;;;;4996497;28;88390;-51
2023/12/22 04:56:12;;;;;;;;;;;1.70;88.70;;;;;;5000443;28;86961;-50
2023/12/22 04:58:37;;;;;;;;;;;1.70;88.60;;;;;;5004461;28;86875;-51
2023/12/22 05:01:03;;;;;;;;;;;1.80;88.90;;;;;;5001810;28;87350;-52
2023/12/22 05:03:28;;;;;;;;;;;1.70;88.70;;;;;;5000954;28;88298;-50
2023/12/22 05:05:54;;;;;;;;;;;1.70;88.80;;;;;;5002011;28;87136;-51
2023/12/22 05:08:19;;;;;;;;;;;1.70;89.00;;;;;;4995765;28;87582;-51
2023/12/22 05:10:45;;;;;;;;;;;1.70;88.80;;;;;;4998376;28;86830;-51
2023/12/22 05:13:11;;;;;;;;;;;1.70;88.90;;;;;;4999368;28;87155;-51
2023/12/22 05:15:36;;;;;;;;;;;1.70;89.10;;;;;;4999241;28;86931;-51
2023/12/22 05:18:02;;;;;;;;;;;1.70;89.10;;;;;;4993677;28;88295;-50
2023/12/22 05:20:27;;;;;;;;;;;1.70;89.00;;;;;;4997079;28;87483;-51
2023/12/22 05:22:53;;;;;;;;;;;1.70;89.00;;;;;;4996227;28;87007;-53
2023/12/22 05:25:18;;;;;;;;;;;1.70;89.10;;;;;;4999474;28;87843;-50
2023/12/22 05:27:44;;;;;;;;;;;1.80;89.00;;;;;;4999042;28;87448;-51
2023/12/22 05:30:10;;;;;;;;;;;1.70;89.00;;;;;;4996773;28;87023;-52
2023/12/22 05:32:35;;;;;;;;;;;1.70;88.90;;;;;;4996815;28;86864;-51
2023/12/22 05:35:01;;;;;;;;;;;1.70;89.00;;;;;;5001255;28;86148;-54
2023/12/22 05:37:26;;;;;;;;;;;1.70;89.00;;;;;;5000579;28;87019;-51
2023/12/22 05:39:52;;;;;;;;;;;1.70;89.00;;;;;;5001174;28;88424;-51
2023/12/22 05:42:17;;;;;;;;;;;1.70;89.00;;;;;;4999452;28;88053;-52
2023/12/22 05:44:43;;;;;;;;;;;1.70;89.00;;;;;;5000682;28;87703;-53
2023/12/22 05:47:10;;;;;;;;;;;1.70;89.20;;;;;;4997321;28;87047;-49
2023/12/22 05:49:36;;;;;;;;;;;1.80;89.00;;;;;;4996258;28;87028;-52
2023/12/22 05:52:01;;;;;;;;;;;1.70;89.00;;;;;;5000252;28;87045;-51
2023/12/22 05:54:27;;;;;;;;;;;1.70;88.90;;;;;;5000554;28;87379;-52
2023/12/22 05:56:52;;;;;;;;;;;1.80;89.10;;;;;;5004809;28;87016;-52
2023/12/22 05:59:18;;;;;;;;;;;1.80;89.20;;;;;;4993568;28;86602;-51
2023/12/22 06:01:44;;;;;;;;;;;1.80;89.10;;;;;;4995888;28;88606;-49
2023/12/22 06:04:09;;;;;;;;;;;1.80;89.10;;;;;;4999146;28;88049;-51
2023/12/22 06:06:36;;;;;;;;;;;1.80;89.00;;;;;;4994278;28;87822;-52
2023/12/22 06:09:02;;;;;;;;;;;1.70;89.20;;;;;;4996255;28;88610;-50
2023/12/22 06:11:27;;;;;;;;;;;1.80;89.00;;;;;;5003086;28;87619;-51
2023/12/22 06:13:53;;;;;;;;;;;1.70;88.90;;;;;;4995454;28;88642;-50
2023/12/22 06:16:18;;;;;;;;;;;1.70;89.10;;;;;;5002065;28;87979;-49
2023/12/22 06:18:44;;;;;;;;;;;1.80;89.20;;;;;;4997377;28;87495;-53
2023/12/22 06:21:10;;;;;;;;;;;1.80;89.60;;;;;;4992913;28;87020;-50
2023/12/22 06:23:36;;;;;;;;;;;1.80;89.10;;;;;;5003887;28;88059;-52
2023/12/22 06:26:07;;;;;;;;;;;1.80;89.30;;;;;;5000543;28;88359;-51
2023/12/22 06:28:32;;;;;;;;;;;1.80;89.10;;;;;;4997814;28;86905;-51
2023/12/22 06:30:58;;;;;;;;;;;1.80;89.00;;;;;;4997043;28;87907;-56
2023/12/22 06:33:24;;;;;;;;;;;1.80;89.00;;;;;;4999393;28;88745;-51
2023/12/22 06:35:53;;;;;;;;;;;1.80;89.10;;;;;;4998495;28;87023;-51
2023/12/22 06:38:19;;;;;;;;;;;1.80;89.40;;;;;;5000464;28;87855;-52
2023/12/22 06:40:46;;;;;;;;;;;1.80;89.30;;;;;;4998411;28;87902;-51
2023/12/22 06:43:11;;;;;;;;;;;1.80;89.20;;;;;;5003869;28;87944;-50
2023/12/22 06:45:37;;;;;;;;;;;1.80;89.30;;;;;;4998112;28;88009;-51
2023/12/22 06:48:03;;;;;;;;;;;1.80;89.10;;;;;;4994747;28;86406;-52
2023/12/22 06:50:28;;;;;;;;;;;1.80;89.10;;;;;;4995123;28;87043;-50
2023/12/22 06:52:54;;;;;;;;;;;1.80;89.10;;;;;;5004142;28;87482;-52
2023/12/22 06:55:19;;;;;;;;;;;1.80;89.10;;;;;;4992350;28;88692;-54
2023/12/22 06:57:45;;;;;;;;;;;1.80;89.20;;;;;;4997630;28;87010;-53
2023/12/22 07:00:11;;;;;;;;;;;1.80;89.20;;;;;;4999355;28;88722;-51
2023/12/22 07:02:37;;;;;;;;;;;1.80;89.30;;;;;;5000153;28;88091;-55
2023/12/22 07:05:08;;;;;;;;;;;1.80;89.10;;;;;;4993147;28;88500;-50
2023/12/22 07:07:34;;;;;;;;;;;1.80;89.30;;;;;;4997679;28;87084;-51
2023/12/22 07:09:59;;;;;;;;;;;1.80;89.20;;;;;;5000885;28;87798;-54
2023/12/22 07:12:25;;;;;;;;;;;1.80;89.10;;;;;;4996693;28;86694;-54
2023/12/22 07:14:50;;;;;;;;;;;1.90;89.10;;;;;;5001703;28;87052;-54
2023/12/22 07:17:16;;;;;;;;;;;1.80;89.10;;;;;;4999929;28;88019;-54
2023/12/22 07:19:41;;;;;;;;;;;1.80;89.20;;;;;;4993572;28;89431;-52
2023/12/22 07:22:07;;;;;;;;;;;1.80;89.10;;;;;;5001656;28;87409;-51
2023/12/22 07:24:33;;;;;;;;;;;1.80;89.20;;;;;;4994827;28;87464;-55
2023/12/22 07:26:58;;;;;;;;;;;1.80;89.50;;;;;;4994020;28;87189;-52
2023/12/22 07:29:24;;;;;;;;;;;1.80;89.80;;;;;;4994749;28;88281;-51
2023/12/22 07:31:50;;;;;;;;;;;1.80;89.10;;;;;;4991358;28;87922;-54
2023/12/22 07:34:16;;;;;;;;;;;1.80;89.50;;;;;;4999208;28;87083;-52
2023/12/22 07:36:42;;;;;;;;;;;1.80;89.20;;;;;;4993075;28;87001;-53
2023/12/22 07:39:09;;;;;;;;;;;1.90;89.20;;;;;;4997250;28;87173;-51
2023/12/22 07:41:34;;;;;;;;;;;1.80;89.00;;;;;;5000163;28;88825;-52
2023/12/22 07:44:01;;;;;;;;;;;1.90;89.00;;;;;;5000071;28;88506;-53
2023/12/22 07:46:28;;;;;;;;;;;1.90;89.30;;;;;;4996128;28;87003;-52
2023/12/22 07:48:54;;;;;;;;;;;1.80;89.20;;;;;;5000406;28;87056;-52
2023/12/22 07:51:19;;;;;;;;;;;1.90;89.20;;;;;;4991923;28;87961;-50
2023/12/22 07:53:45;;;;;;;;;;;1.80;89.40;;;;;;4995166;28;87060;-50
2023/12/22 07:56:11;;;;;;;;;;;1.90;89.40;;;;;;4991196;28;89402;-51
2023/12/22 07:58:37;;;;;;;;;;;1.80;89.20;;;;;;5002857;28;87661;-52
2023/12/22 08:01:05;;;;;;;;;;;1.90;89.20;;;;;;4995360;28;86417;-52
2023/12/22 08:03:31;;;;;;;;;;;1.90;89.30;;;;;;4992173;28;87012;-51
2023/12/22 08:05:56;;;;;;;;;;;1.90;89.00;;;;;;5001184;28;87604;-51
2023/12/22 08:08:22;;;;;;;;;;;1.90;89.20;;;;;;4994720;28;87922;-50
2023/12/22 08:10:48;;;;;;;;;;;1.90;89.20;;;;;;4992556;28;87076;-50
2023/12/22 08:13:13;;;;;;;;;;;1.90;89.30;;;;;;4995150;28;86925;-50
2023/12/22 08:15:39;;;;;;;;;;;2.00;89.20;;;;;;4996153;28;87110;-52
2023/12/22 08:18:05;;;;;;;;;;;2.00;89.00;;;;;;4993445;28;87575;-52
2023/12/22 08:20:30;;;;;;;;;;;2.00;88.90;;;;;;4999538;28;87386;-53
2023/12/22 08:22:56;;;;;;;;;;;2.00;89.10;;;;;;5001036;28;86956;-50
2023/12/22 08:25:21;;;;;;;;;;;1.90;89.10;;;;;;5004315;28;86849;-51
2023/12/22 08:27:47;;;;;;;;;;;2.00;89.20;;;;;;5003341;28;86870;-53
2023/12/22 08:30:14;;;;;;;;;;;1.90;89.10;;;;;;5000921;28;88533;-52
2023/12/22 08:32:39;;;;;;;;;;;2.00;89.20;;;;;;5003968;28;87932;-53
2023/12/22 08:35:05;;;;;;;;;;;2.00;89.00;;;;;;4997265;28;86961;-49
2023/12/22 08:37:31;;;;;;;;;;;2.00;89.10;;;;;;4997053;28;88811;-50
2023/12/22 08:39:57;;;;;;;;;;;2.00;89.10;;;;;;5000360;28;86891;-53
2023/12/22 08:42:23;;;;;;;;;;;2.00;89.10;;;;;;5000673;28;87839;-51
2023/12/22 08:44:49;;;;;;;;;;;2.00;89.10;;;;;;4998946;28;86947;-52
2023/12/22 08:47:15;;;;;;;;;;;2.00;89.10;;;;;;5000928;28;87516;-54
2023/12/22 08:49:41;;;;;;;;;;;2.00;89.10;;;;;;4998350;28;87826;-51
2023/12/22 08:52:07;;;;;;;;;;;2.00;89.30;;;;;;5000064;28;87062;-55
2023/12/22 08:54:34;;;;;;;;;;;2.00;89.10;;;;;;5003389;28;87637;-51
2023/12/22 08:56:59;;;;;;;;;;;2.00;89.10;;;;;;4998897;28;89657;-54
2023/12/22 08:59:25;;;;;;;;;;;2.00;89.20;;;;;;4997570;28;86938;-52
2023/12/22 09:01:50;;;;;;;;;;;2.00;89.00;;;;;;5000504;28;87932;-51
2023/12/22 09:04:16;;;;;;;;;;;2.00;88.90;;;;;;5000830;28;87290;-51
2023/12/22 09:06:42;;;;;;;;;;;2.00;89.00;;;;;;4999694;28;87003;-51
2023/12/22 09:09:08;;;;;;;;;;;2.00;89.10;;;;;;5002748;28;87736;-51
2023/12/22 09:11:34;;;;;;;;;;;2.00;89.00;;;;;;4998471;28;87201;-52
2023/12/22 09:14:00;;;;;;;;;;;2.00;89.10;;;;;;4996692;28;87255;-52
2023/12/22 09:16:25;;;;;;;;;;;2.00;89.00;;;;;;4997282;28;87410;-55
2023/12/22 09:18:51;;;;;;;;;;;2.00;89.10;;;;;;4996237;28;87474;-53
2023/12/22 09:21:17;;;;;;;;;;;2.00;89.20;;;;;;4999480;28;87882;-51
2023/12/22 09:23:46;;;;;;;;;;;2.00;89.10;;;;;;4998922;28;87033;-52
2023/12/22 09:26:13;;;;;;;;;;;2.00;89.60;;;;;;4993615;28;87107;-51
2023/12/22 09:28:38;;;;;;;;;;;2.00;90.10;;;;;;4996898;28;88013;-51
2023/12/22 09:31:05;;;;;;;;;;;2.00;89.40;;;;;;5005928;28;87629;-51
2023/12/22 09:33:31;;;;;;;;;;;2.10;89.60;;;;;;4999178;28;88049;-55
2023/12/22 09:35:56;;;;;;;;;;;2.00;89.50;;;;;;4997643;28;87439;-52
2023/12/22 09:38:23;;;;;;;;;;;2.10;89.40;;;;;;4996127;28;86284;-55
2023/12/22 09:40:49;;;;;;;;;;;2.10;89.20;;;;;;4998662;28;87091;-52
2023/12/22 09:43:15;;;;;;;;;;;2.10;89.90;;;;;;4998883;28;87091;-52
2023/12/22 09:45:41;;;;;;;;;;;2.10;89.40;;;;;;4995340;28;88910;-53
2023/12/22 09:48:07;;;;;;;;;;;2.10;89.50;;;;;;5001017;28;87652;-55
2023/12/22 09:50:34;;;;;;;;;;;2.10;89.70;;;;;;4995305;28;86863;-52
2023/12/22 09:53:00;;;;;;;;;;;2.10;89.60;;;;;;4999519;28;87200;-55
2023/12/22 09:55:26;;;;;;;;;;;2.10;89.50;;;;;;4998532;28;87587;-54
2023/12/22 09:57:52;;;;;;;;;;;2.10;89.70;;;;;;5002151;28;87021;-54
2023/12/22 10:00:18;;;;;;;;;;;2.10;89.40;;;;;;5000667;28;87045;-53
2023/12/22 10:02:45;;;;;;;;;;;2.10;89.60;;;;;;5001733;28;86827;-55
2023/12/22 10:05:12;;;;;;;;;;;2.10;89.60;;;;;;4997106;28;86880;-56
2023/12/22 10:07:38;;;;;;;;;;;2.10;89.70;;;;;;4998997;28;87905;-54
2023/12/22 10:10:05;;;;;;;;;;;2.10;89.60;;;;;;5000104;28;88383;-55
2023/12/22 10:12:33;;;;;;;;;;;2.10;89.60;;;;;;4994114;28;87154;-52
2023/12/22 10:14:59;;;;;;;;;;;2.10;89.70;;;;;;4999998;28;86900;-54
2023/12/22 10:17:25;;;;;;;;;;;2.10;89.70;;;;;;4999718;28;86854;-54
2023/12/22 10:19:50;;;;;;;;;;;2.10;89.80;;;;;;4996311;28;88061;-54
2023/12/22 10:22:17;;;;;;;;;;;2.20;89.80;;;;;;4998534;28;87563;-53
2023/12/22 10:24:46;;;;;;;;;;;2.10;89.80;;;;;;4997301;28;88601;-54
2023/12/22 10:27:12;;;;;;;;;;;2.20;89.60;;;;;;4999961;28;87818;-54
2023/12/22 10:29:38;;;;;;;;;;;2.20;89.70;;;;;;5000761;28;88637;-54
2023/12/22 10:32:04;;;;;;;;;;;2.20;89.70;;;;;;4994186;28;87023;-55
2023/12/22 10:34:30;;;;;;;;;;;2.20;89.90;;;;;;4998942;28;87948;-52
2023/12/22 10:36:56;;;;;;;;;;;2.10;89.90;;;;;;5001075;28;87019;-55
2023/12/22 10:39:22;;;;;;;;;;;2.20;89.70;;;;;;4997187;28;87177;-55
2023/12/22 10:41:49;;;;;;;;;;;2.20;89.80;;;;;;4999424;28;87653;-52
2023/12/22 10:44:15;;;;;;;;;;;2.20;89.60;;;;;;4994370;28;87019;-53
2023/12/22 10:46:40;;;;;;;;;;;2.20;89.80;;;;;;4993993;28;87843;-52
2023/12/22 10:49:07;;;;;;;;;;;2.20;90.00;;;;;;4995739;28;88515;-51
2023/12/22 10:51:33;;;;;;;;;;;2.20;90.00;;;;;;4999895;28;87024;-52
2023/12/22 10:53:59;;;;;;;;;;;2.20;90.00;;;;;;4996827;28;86942;-54
2023/12/22 10:56:24;;;;;;;;;;;2.20;90.00;;;;;;5003166;28;87397;-51
2023/12/22 10:58:52;;;;;;;;;;;2.30;90.10;;;;;;4994534;28;88335;-51
2023/12/22 11:01:17;;;;;;;;;;;2.30;90.00;;;;;;4995950;28;87110;-53
2023/12/22 11:03:44;;;;;;;;;;;2.30;90.10;;;;;;4999497;28;87270;-54
2023/12/22 11:06:10;;;;;;;;;;;2.30;90.00;;;;;;4998286;28;87949;-53
2023/12/22 11:08:36;;;;;;;;;;;2.30;90.10;;;;;;4997881;28;87559;-52
2023/12/22 11:11:08;;;;;;;;;;;2.30;90.10;;;;;;4993682;28;86917;-53
2023/12/22 11:13:34;;;;;;;;;;;2.30;90.10;;;;;;4995481;28;86855;-52
2023/12/22 11:15:59;;;;;;;;;;;2.30;90.10;;;;;;4999050;28;86697;-52
2023/12/22 11:18:25;;;;;;;;;;;2.30;90.10;;;;;;5001424;28;86938;-52
2023/12/22 11:20:51;;;;;;;;;;;2.30;90.10;;;;;;4995222;28;87284;-52
2023/12/22 11:23:17;;;;;;;;;;;2.30;90.10;;;;;;4996185;28;87976;-55
2023/12/22 11:25:43;;;;;;;;;;;2.30;90.10;;;;;;5000174;28;90523;-55
2023/12/22 11:28:09;;;;;;;;;;;2.30;90.10;;;;;;4995885;28;88833;-53
2023/12/22 11:30:36;;;;;;;;;;;2.40;90.10;;;;;;4998897;28;87065;-54
2023/12/22 11:33:02;;;;;;;;;;;2.30;90.10;;;;;;5001693;28;86988;-55
2023/12/22 11:35:28;;;;;;;;;;;2.40;90.20;;;;;;4996645;28;88491;-54
2023/12/22 11:37:54;;;;;;;;;;;2.40;90.20;;;;;;4996732;28;87049;-52
2023/12/22 11:40:20;;;;;;;;;;;2.30;90.20;;;;;;5001700;28;87777;-51
2023/12/22 11:42:48;;;;;;;;;;;2.40;90.20;;;;;;5001728;28;86958;-55
2023/12/22 11:45:15;;;;;;;;;;;2.30;90.20;;;;;;4994747;28;88005;-53
2023/12/22 11:47:42;;;;;;;;;;;2.30;90.30;;;;;;4997983;28;89465;-55
2023/12/22 11:50:11;;;;;;;;;;;2.40;90.40;;;;;;4997183;28;87049;-52
2023/12/22 11:52:37;;;;;;;;;;;2.30;90.30;;;;;;5002428;28;88088;-52
2023/12/22 11:55:03;;;;;;;;;;;2.40;90.20;;;;;;4996029;28;87363;-54
2023/12/22 11:57:31;;;;;;;;;;;2.40;90.30;;;;;;5000470;28;88137;-51
2023/12/22 11:59:57;;;;;;;;;;;2.40;90.30;;;;;;4999145;28;87846;-55
2023/12/22 12:02:23;;;;;;;;;;;2.40;90.30;;;;;;5002775;28;87467;-51
2023/12/22 12:04:50;;;;;;;;;;;2.40;90.20;;;;;;5001854;28;87729;-53
2023/12/22 12:07:34;;;;;;;;;;;2.40;90.30;;;;;;4997858;28;87563;-52
2023/12/22 12:09:59;;;;;;;;;;;2.40;90.30;;;;;;5004597;28;86959;-55
2023/12/22 12:12:26;;;;;;;;;;;2.40;90.30;;;;;;4998631;28;88045;-53
2023/12/22 12:14:54;;;;;;;;;;;2.40;90.30;;;;;;5000538;28;87891;-53
2023/12/22 12:17:20;;;;;;;;;;;2.40;90.40;;;;;;5004346;28;87044;-53
2023/12/22 12:19:47;;;;;;;;;;;2.40;90.30;;;;;;5005390;28;87821;-52
2023/12/22 12:22:13;;;;;;;;;;;2.40;90.30;;;;;;4998982;28;87597;-54
2023/12/22 12:24:39;;;;;;;;;;;2.40;90.40;;;;;;5002166;28;86939;-54
2023/12/22 12:27:04;;;;;;;;;;;2.40;90.40;;;;;;4997803;28;86996;-53
2023/12/22 12:29:31;;;;;;;;;;;2.40;90.30;;;;;;4998633;28;86372;-54
2023/12/22 12:32:05;;;;;;;;;;;2.40;90.40;;;;;;5000463;28;88768;-54
2023/12/22 12:34:30;;;;;;;;;;;2.40;90.30;;;;;;4997882;28;88453;-52
2023/12/22 12:36:56;;;;;;;;;;;2.40;90.30;;;;;;5000385;28;87944;-55
2023/12/22 12:39:25;;;;;;;;;;;2.40;90.30;;;;;;4999910;28;87715;-54
2023/12/22 12:41:53;;;;;;;;;;;2.40;90.40;;;;;;4996607;28;87972;-55
2023/12/22 12:44:20;;;;;;;;;;;2.40;90.40;;;;;;5000753;28;87013;-55
2023/12/22 12:46:45;;;;;;;;;;;2.40;90.30;;;;;;5002419;28;88164;-53
2023/12/22 12:49:12;;;;;;;;;;;2.40;90.40;;;;;;4997036;28;87528;-51
2023/12/22 12:51:40;;;;;;;;;;;2.40;90.40;;;;;;5002834;28;87166;-54
2023/12/22 12:54:06;;;;;;;;;;;2.40;90.40;;;;;;4996299;28;86724;-51
2023/12/22 12:56:42;;;;;;;;;;;2.40;90.40;;;;;;5004639;28;87009;-52
2023/12/22 12:59:11;;;;;;;;;;;2.40;90.40;;;;;;4998910;28;87719;-54
2023/12/22 13:01:37;;;;;;;;;;;2.40;90.50;;;;;;4994150;28;89622;-51
2023/12/22 13:04:03;;;;;;;;;;;2.40;90.40;;;;;;5000952;28;86954;-51
2023/12/22 13:06:29;;;;;;;;;;;2.40;90.50;;;;;;5004694;28;87445;-51
2023/12/22 13:08:54;;;;;;;;;;;2.40;90.50;;;;;;4997680;28;87022;-53
2023/12/22 13:11:24;;;;;;;;;;;2.50;90.40;;;;;;4998660;28;87069;-52
2023/12/22 13:13:50;;;;;;;;;;;2.50;90.30;;;;;;5002037;28;87814;-54
2023/12/22 13:16:32;;;;;;;;;;;2.50;90.30;;;;;;4998876;28;86974;-54
2023/12/22 13:18:58;;;;;;;;;;;2.50;90.30;;;;;;4999027;28;86611;-55
2023/12/22 13:21:24;;;;;;;;;;;2.50;90.30;;;;;;5000071;28;88459;-54
2023/12/22 13:24:28;;;;;;;;;;;2.50;90.30;;;;;;5001078;28;86987;-53
2023/12/22 13:27:01;;;;;;;;;;;2.50;90.50;;;;;;4934454;28;88707;-54
2023/12/22 13:29:26;;;;;;;;;;;2.50;90.40;;;;;;4941295;28;88664;-54
2023/12/22 13:31:52;;;;;;;;;;;2.50;90.40;;;;;;4967665;28;86960;-53
2023/12/22 13:34:17;;;;;;;;;;;2.50;90.40;;;;;;5000824;28;87481;-54
2023/12/22 13:36:43;;;;;;;;;;;2.50;90.40;;;;;;4998819;28;87622;-51
2023/12/22 13:39:09;;;;;;;;;;;2.50;90.40;;;;;;4996865;28;86904;-53
2023/12/22 13:41:35;;;;;;;;;;;2.50;90.40;;;;;;5002760;28;87525;-54
2023/12/22 13:44:04;;;;;;;;;;;2.50;90.50;;;;;;5001243;28;86828;-55
2023/12/22 13:46:30;;;;;;;;;;;2.50;90.40;;;;;;4995336;28;87621;-55
2023/12/22 13:48:56;;;;;;;;;;;2.50;90.30;;;;;;4999981;28;87401;-53
2023/12/22 13:51:22;;;;;;;;;;;2.50;90.40;;;;;;5000529;28;87948;-55
2023/12/22 13:53:48;;;;;;;;;;;2.50;90.40;;;;;;4998588;28;87722;-55
2023/12/22 13:56:14;;;;;;;;;;;2.50;90.50;;;;;;4996418;28;87035;-53
2023/12/22 13:58:46;;;;;;;;;;;2.50;90.40;;;;;;4997310;28;87035;-55
2023/12/22 14:01:15;;;;;;;;;;;2.50;90.30;;;;;;4999425;28;88550;-53
2023/12/22 14:03:41;;;;;;;;;;;2.50;90.40;;;;;;4995874;28;87001;-52
2023/12/22 14:06:08;;;;;;;;;;;2.50;90.40;;;;;;5003269;28;87970;-50
2023/12/22 14:08:35;;;;;;;;;;;2.50;90.40;;;;;;4996239;28;88221;-55
2023/12/22 14:11:00;;;;;;;;;;;2.50;90.40;;;;;;5000711;28;87030;-53
2023/12/22 14:13:27;;;;;;;;;;;2.50;90.50;;;;;;5000062;28;87000;-55
2023/12/22 14:15:52;;;;;;;;;;;2.50;90.40;;;;;;4994811;28;88134;-55
2023/12/22 14:18:18;;;;;;;;;;;2.50;90.30;;;;;;4994474;28;87957;-52
2023/12/22 14:20:45;;;;;;;;;;;2.50;90.40;;;;;;4997634;28;87454;-52
2023/12/22 14:23:16;;;;;;;;;;;2.50;90.30;;;;;;4999138;28;86971;-50
2023/12/22 14:25:44;;;;;;;;;;;2.50;90.30;;;;;;4992675;28;87841;-52